createdAt,value
2023-05-10T00:02:29.951Z,100.00
2023-05-10T00:05:32.772Z,100.00
2023-05-10T00:08:34.959Z,100.00
2023-05-10T00:11:37.125Z,100.00
2023-05-10T00:14:39.353Z,100.00
2023-05-10T00:17:41.570Z,100.00
2023-05-10T00:20:43.792Z,100.00
2023-05-10T00:23:45.972Z,100.00
2023-05-10T00:26:48.164Z,100.00
2023-05-10T00:29:50.407Z,100.00
2023-05-10T00:32:52.820Z,100.00
2023-05-10T00:35:55.115Z,100.00
2023-05-10T00:38:57.359Z,100.00
2023-05-10T00:42:00.037Z,100.00
2023-05-10T00:45:02.387Z,100.00
2023-05-10T00:48:05.199Z,100.00
2023-05-10T00:51:07.475Z,100.00
2023-05-10T00:54:12.177Z,100.00
2023-05-10T00:57:14.368Z,100.00
2023-05-10T01:00:20.074Z,100.00
2023-05-10T01:03:22.388Z,100.00
2023-05-10T01:06:24.632Z,100.00
2023-05-10T01:09:27.398Z,100.00
2023-05-10T01:12:29.905Z,100.00
2023-05-10T01:15:32.486Z,100.00
2023-05-10T01:18:37.938Z,100.00
2023-05-10T01:21:45.684Z,100.00
2023-05-10T01:25:00.152Z,100.00
2023-05-10T01:28:40.088Z,100.00
2023-05-10T01:32:17.036Z,100.00
2023-05-10T01:35:37.434Z,100.00
2023-05-10T01:38:48.338Z,100.00
2023-05-10T01:42:05.254Z,100.00
2023-05-10T01:45:32.150Z,100.00
2023-05-10T01:48:34.713Z,100.00
2023-05-10T01:51:43.591Z,100.00
2023-05-10T01:54:57.104Z,100.00
2023-05-10T01:58:11.357Z,100.00
2023-05-10T02:01:14.655Z,100.00
2023-05-10T02:04:18.096Z,100.00
2023-05-10T02:07:21.163Z,100.00
2023-05-10T02:10:23.445Z,100.00
2023-05-10T02:13:27.283Z,100.00
2023-05-10T02:16:31.913Z,100.00
2023-05-10T02:19:35.346Z,100.00
2023-05-10T02:22:38.062Z,100.00
2023-05-10T02:25:40.893Z,100.00
2023-05-10T02:28:43.457Z,100.00
2023-05-10T02:31:46.584Z,100.00
2023-05-10T02:34:52.888Z,100.00
2023-05-10T02:37:55.549Z,100.00
2023-05-10T02:40:58.292Z,100.00
2023-05-10T02:44:03.727Z,100.00
2023-05-10T02:47:05.974Z,100.00
2023-05-10T02:50:08.595Z,100.00
2023-05-10T02:53:12.695Z,100.00
2023-05-10T02:56:21.617Z,100.00
2023-05-10T02:59:23.842Z,100.00
2023-05-10T03:02:26.195Z,100.00
2023-05-10T03:05:28.463Z,100.00
2023-05-10T03:08:30.793Z,100.00
2023-05-10T03:11:46.318Z,100.00
2023-05-10T03:15:17.308Z,100.00
2023-05-10T03:18:52.119Z,100.00
2023-05-10T03:21:55.026Z,100.00
2023-05-10T03:25:00.516Z,100.00
2023-05-10T03:28:03.538Z,100.00
2023-05-10T03:31:06.692Z,100.00
2023-05-10T03:34:09.000Z,100.00
2023-05-10T03:37:11.234Z,100.00
2023-05-10T03:40:13.513Z,100.00
2023-05-10T03:43:15.731Z,100.00
2023-05-10T03:46:18.023Z,100.00
2023-05-10T03:49:20.208Z,100.00
2023-05-10T03:52:22.438Z,100.00
2023-05-10T03:55:24.892Z,100.00
2023-05-10T03:58:27.075Z,100.00
2023-05-10T04:01:29.246Z,100.00
2023-05-10T04:04:31.468Z,100.00
2023-05-10T04:07:33.656Z,100.00
2023-05-10T04:10:35.970Z,100.00
2023-05-10T04:13:39.061Z,100.00
2023-05-10T04:16:41.472Z,100.00
2023-05-10T04:19:43.702Z,100.00
2023-05-10T04:22:45.923Z,100.00
2023-05-10T04:25:48.475Z,100.00
2023-05-10T04:28:50.638Z,100.00
2023-05-10T04:31:52.798Z,100.00
2023-05-10T04:34:54.973Z,100.00
2023-05-10T04:37:57.194Z,100.00
2023-05-10T04:41:10.000Z,100.00
2023-05-10T04:44:12.352Z,100.00
2023-05-10T04:47:14.534Z,100.00
2023-05-10T04:50:16.991Z,100.00
2023-05-10T04:53:19.344Z,100.00
2023-05-10T04:56:22.911Z,100.00
2023-05-10T04:59:25.168Z,100.00
2023-05-10T05:02:27.452Z,100.00
2023-05-10T05:05:29.723Z,100.00
2023-05-10T05:08:32.240Z,100.00
2023-05-10T05:11:34.393Z,100.00
2023-05-10T05:14:36.610Z,100.00
2023-05-10T05:17:38.842Z,100.00
2023-05-10T05:20:41.050Z,100.00
2023-05-10T05:23:43.573Z,100.00
2023-05-10T05:26:45.836Z,100.00
2023-05-10T05:29:48.045Z,100.00
2023-05-10T05:32:50.367Z,100.00
2023-05-10T05:35:52.751Z,100.00
2023-05-10T05:38:54.978Z,100.00
2023-05-10T05:41:57.179Z,100.00
2023-05-10T05:44:59.512Z,100.00
2023-05-10T05:48:02.177Z,100.00
2023-05-10T05:51:07.042Z,100.00
2023-05-10T05:54:09.599Z,100.00
2023-05-10T05:57:11.874Z,100.00
2023-05-10T06:00:14.590Z,100.00
2023-05-10T06:03:16.997Z,100.00
2023-05-10T06:06:19.259Z,100.00
2023-05-10T06:09:21.546Z,100.00
2023-05-10T06:12:23.752Z,100.00
2023-05-10T06:15:26.229Z,100.00
2023-05-10T06:18:28.469Z,100.00
2023-05-10T06:21:31.171Z,100.00
2023-05-10T06:24:33.453Z,100.00
2023-05-10T06:27:35.758Z,100.00
2023-05-10T06:30:38.008Z,100.00
2023-05-10T06:33:40.450Z,100.00
2023-05-10T06:36:42.841Z,100.00
2023-05-10T06:39:45.064Z,100.00
2023-05-10T06:42:48.228Z,100.00
2023-05-10T06:45:50.436Z,100.00
2023-05-10T06:48:52.764Z,100.00
2023-05-10T06:51:56.432Z,100.00
2023-05-10T06:54:59.186Z,100.00
2023-05-10T06:58:01.442Z,100.00
2023-05-10T07:01:05.193Z,100.00
2023-05-10T07:04:08.809Z,100.00
2023-05-10T07:07:11.053Z,100.00
2023-05-10T07:10:13.334Z,100.00
2023-05-10T07:13:15.609Z,100.00
2023-05-10T07:16:18.027Z,100.00
2023-05-10T07:19:20.810Z,100.00
2023-05-10T07:22:23.142Z,100.00
2023-05-10T07:25:25.452Z,100.00
2023-05-10T07:28:28.350Z,100.00
2023-05-10T07:31:30.729Z,100.00
2023-05-10T07:34:33.015Z,100.00
2023-05-10T07:37:35.557Z,100.00
2023-05-10T07:40:38.464Z,100.00
2023-05-10T07:43:41.019Z,100.00
2023-05-10T07:46:43.244Z,100.00
2023-05-10T07:49:45.420Z,100.00
2023-05-10T07:52:48.160Z,100.00
2023-05-10T07:55:59.399Z,100.00
2023-05-10T07:59:01.747Z,100.00
2023-05-10T08:02:04.282Z,100.00
2023-05-10T08:05:06.852Z,100.00
2023-05-10T08:08:09.064Z,100.00
2023-05-10T08:11:11.335Z,100.00
2023-05-10T08:14:13.622Z,100.00
2023-05-10T08:17:16.221Z,100.00
2023-05-10T08:20:20.002Z,100.00
2023-05-10T08:23:22.262Z,100.00
2023-05-10T08:26:24.559Z,100.00
2023-05-10T08:29:28.417Z,100.00
2023-05-10T08:32:32.699Z,100.00
2023-05-10T08:35:35.936Z,100.00
2023-05-10T08:38:38.813Z,100.00
2023-05-10T08:41:41.649Z,100.00
2023-05-10T08:44:43.990Z,100.00
2023-05-10T08:47:46.825Z,100.00
2023-05-10T08:50:49.859Z,100.00
2023-05-10T08:53:52.392Z,100.00
2023-05-10T08:56:54.721Z,100.00
2023-05-10T08:59:57.022Z,100.00
2023-05-10T09:03:00.455Z,100.00
2023-05-10T09:06:02.783Z,100.00
2023-05-10T09:09:05.086Z,100.00
2023-05-10T09:12:08.039Z,100.00
2023-05-10T09:15:10.851Z,100.00
2023-05-10T09:18:13.836Z,100.00
2023-05-10T09:21:16.272Z,100.00
2023-05-10T09:24:18.503Z,100.00
2023-05-10T09:27:27.980Z,100.00
2023-05-10T09:30:31.966Z,100.00
2023-05-10T09:33:45.230Z,100.00
2023-05-10T09:36:52.418Z,100.00
2023-05-10T09:39:56.005Z,100.00
2023-05-10T09:43:03.344Z,100.00
2023-05-10T09:46:10.873Z,100.00
2023-05-10T09:49:15.759Z,100.00
2023-05-10T09:52:18.003Z,100.00
2023-05-10T09:55:25.089Z,100.00
2023-05-10T09:58:27.343Z,100.00
2023-05-10T10:01:29.811Z,100.00
2023-05-10T10:04:32.089Z,100.00
2023-05-10T10:07:35.100Z,100.00
2023-05-10T10:10:37.369Z,100.00
2023-05-10T10:13:39.642Z,100.00
2023-05-10T10:16:48.726Z,100.00
2023-05-10T10:19:58.364Z,100.00
2023-05-10T10:23:00.645Z,83.79
2023-05-10T10:26:06.302Z,79.62
2023-05-10T10:29:27.371Z,81.92
2023-05-10T10:33:10.127Z,76.11
2023-05-10T10:36:16.540Z,78.02
2023-05-10T10:39:19.281Z,75.01
2023-05-10T10:42:47.266Z,73.35
2023-05-10T10:46:08.453Z,68.37
2023-05-10T10:49:11.493Z,61.42
2023-05-10T10:52:29.197Z,61.99
2023-05-10T10:55:31.479Z,60.53
2023-05-10T10:58:35.793Z,63.18
2023-05-10T11:01:38.197Z,63.03
2023-05-10T11:04:47.817Z,62.45
2023-05-10T11:08:00.564Z,63.11
2023-05-10T11:11:10.171Z,61.37
2023-05-10T11:14:12.377Z,59.40
2023-05-10T11:17:33.767Z,62.92
2023-05-10T11:20:42.238Z,60.80
2023-05-10T11:23:44.397Z,61.94
2023-05-10T11:26:46.767Z,60.30
2023-05-10T11:29:52.741Z,58.91
2023-05-10T11:32:54.970Z,49.41
2023-05-10T11:35:57.219Z,49.99
2023-05-10T11:38:59.485Z,51.48
2023-05-10T11:42:01.808Z,54.18
2023-05-10T11:45:04.188Z,54.23
2023-05-10T11:48:06.479Z,53.46
2023-05-10T11:51:09.485Z,53.67
2023-05-10T11:54:12.517Z,55.35
2023-05-10T11:57:14.774Z,53.52
2023-05-10T12:00:17.259Z,53.11
2023-05-10T12:03:19.971Z,53.32
2023-05-10T12:06:22.710Z,52.95
2023-05-10T12:09:39.588Z,52.40
2023-05-10T12:12:46.662Z,52.27
2023-05-10T12:15:48.863Z,50.60
2023-05-10T12:19:00.717Z,53.36
2023-05-10T12:22:06.402Z,53.94
2023-05-10T12:25:09.888Z,54.46
2023-05-10T12:28:12.156Z,55.71
2023-05-10T12:31:14.314Z,52.99
2023-05-10T12:34:27.481Z,52.50
2023-05-10T12:37:29.709Z,52.21
2023-05-10T12:40:31.972Z,51.37
2023-05-10T12:43:35.358Z,50.04
2023-05-10T12:46:37.620Z,50.38
2023-05-10T12:49:39.842Z,48.25
2023-05-10T12:52:42.057Z,48.25
2023-05-10T12:55:45.216Z,48.41
2023-05-10T12:58:49.225Z,47.50
2023-05-10T13:01:51.533Z,47.88
2023-05-10T13:04:54.006Z,49.50
2023-05-10T13:07:56.204Z,48.63
2023-05-10T13:10:58.463Z,47.83
2023-05-10T13:14:00.727Z,47.57
2023-05-10T13:17:02.913Z,45.09
2023-05-10T13:20:05.757Z,46.54
2023-05-10T13:23:07.981Z,47.83
2023-05-10T13:26:10.151Z,47.07
2023-05-10T13:29:12.364Z,48.33
2023-05-10T13:32:14.566Z,45.72
2023-05-10T13:35:16.756Z,45.85
2023-05-10T13:38:19.952Z,45.69
2023-05-10T13:41:23.903Z,46.23
2023-05-10T13:44:26.822Z,46.75
2023-05-10T13:47:29.055Z,45.90
2023-05-10T13:50:31.321Z,46.20
2023-05-10T13:53:33.541Z,47.12
2023-05-10T13:56:35.741Z,45.24
2023-05-10T13:59:38.444Z,44.94
2023-05-10T14:02:41.577Z,45.33
2023-05-10T14:05:43.791Z,46.20
2023-05-10T14:08:46.643Z,44.71
2023-05-10T14:11:48.920Z,44.86
2023-05-10T14:14:51.140Z,46.42
2023-05-10T14:17:53.432Z,46.25
2023-05-10T14:20:56.293Z,44.67
2023-05-10T14:23:58.560Z,44.67
2023-05-10T14:27:01.151Z,45.42
2023-05-10T14:30:03.815Z,45.74
2023-05-10T14:33:06.054Z,45.24
2023-05-10T14:36:08.518Z,45.62
2023-05-10T14:39:11.255Z,45.55
2023-05-10T14:42:13.430Z,44.95
2023-05-10T14:45:15.832Z,43.32
2023-05-10T14:48:18.528Z,43.45
2023-05-10T14:51:22.758Z,44.21
2023-05-10T14:54:24.968Z,45.28
2023-05-10T14:57:27.156Z,45.07
2023-05-10T15:00:30.394Z,45.54
2023-05-10T15:03:33.167Z,45.83
2023-05-10T15:06:36.336Z,44.86
2023-05-10T15:09:38.615Z,45.32
2023-05-10T15:12:41.061Z,45.71
2023-05-10T15:15:43.438Z,45.31
2023-05-10T15:18:45.797Z,45.55
2023-05-10T15:21:48.357Z,46.31
2023-05-10T15:24:50.583Z,46.26
2023-05-10T15:27:52.782Z,47.27
2023-05-10T15:30:55.028Z,49.31
2023-05-10T15:33:59.551Z,46.69
2023-05-10T15:37:01.715Z,46.63
2023-05-10T15:40:05.086Z,49.48
2023-05-10T15:43:07.570Z,48.43
2023-05-10T15:46:10.069Z,48.97
2023-05-10T15:49:12.333Z,49.96
2023-05-10T15:52:14.516Z,49.97
2023-05-10T15:55:17.344Z,50.26
2023-05-10T15:58:19.723Z,51.38
2023-05-10T16:01:22.160Z,50.74
2023-05-10T16:04:24.409Z,49.66
2023-05-10T16:07:26.727Z,49.68
2023-05-10T16:10:33.110Z,49.56
2023-05-10T16:13:35.427Z,50.16
2023-05-10T16:16:37.704Z,50.83
2023-05-10T16:19:39.949Z,49.69
2023-05-10T16:22:42.489Z,50.02
2023-05-10T16:25:44.683Z,49.42
2023-05-10T16:28:47.062Z,49.80
2023-05-10T16:31:49.263Z,49.81
2023-05-10T16:34:53.555Z,51.08
2023-05-10T16:37:56.064Z,50.57
2023-05-10T16:40:58.229Z,51.02
2023-05-10T16:44:00.680Z,52.31
2023-05-10T16:47:03.455Z,51.88
2023-05-10T16:50:07.165Z,51.98
2023-05-10T16:53:09.329Z,52.23
2023-05-10T16:56:11.508Z,52.09
2023-05-10T16:59:13.700Z,51.84
2023-05-10T17:02:15.994Z,51.70
2023-05-10T17:05:18.736Z,52.06
2023-05-10T17:08:22.114Z,51.78
2023-05-10T17:11:24.369Z,50.89
2023-05-10T17:14:27.050Z,50.42
2023-05-10T17:17:29.320Z,50.25
2023-05-10T17:20:31.573Z,50.29
2023-05-10T17:23:33.769Z,50.15
2023-05-10T17:26:35.954Z,50.57
2023-05-10T17:29:38.196Z,50.61
2023-05-10T17:32:40.532Z,49.85
2023-05-10T17:35:45.147Z,50.16
2023-05-10T17:38:47.338Z,50.35
2023-05-10T17:41:49.524Z,50.75
2023-05-10T17:44:51.700Z,50.82
2023-05-10T17:47:53.872Z,51.45
2023-05-10T17:50:56.405Z,51.34
2023-05-10T17:53:58.952Z,51.99
2023-05-10T17:57:01.708Z,51.25
2023-05-10T18:00:06.373Z,52.14
2023-05-10T18:03:08.715Z,52.63
2023-05-10T18:06:11.320Z,52.23
2023-05-10T18:09:13.893Z,52.83
2023-05-10T18:12:16.170Z,53.09
2023-05-10T18:15:18.533Z,53.35
2023-05-10T18:18:20.885Z,53.64
2023-05-10T18:21:23.261Z,54.08
2023-05-10T18:24:37.482Z,54.58
2023-05-10T18:27:41.704Z,54.77
2023-05-10T18:30:44.442Z,55.32
2023-05-10T18:33:46.825Z,55.83
2023-05-10T18:36:49.293Z,56.25
2023-05-10T18:39:51.496Z,56.38
2023-05-10T18:42:53.906Z,56.57
2023-05-10T18:45:56.319Z,56.24
2023-05-10T18:48:58.536Z,56.55
2023-05-10T18:52:00.737Z,56.39
2023-05-10T18:55:03.850Z,56.48
2023-05-10T18:58:06.054Z,56.89
2023-05-10T19:01:08.976Z,57.14
2023-05-10T19:04:11.304Z,57.95
2023-05-10T19:07:13.844Z,56.85
2023-05-10T19:10:16.037Z,57.24
2023-05-10T19:13:18.299Z,57.92
2023-05-10T19:16:22.023Z,57.33
2023-05-10T19:19:26.314Z,57.16
2023-05-10T19:25:35.291Z,57.27
2023-05-10T19:28:38.314Z,57.67
2023-05-10T19:31:40.637Z,57.37
2023-05-10T19:34:43.035Z,56.37
2023-05-10T19:37:47.177Z,55.91
2023-05-10T19:40:50.315Z,55.95
2023-05-10T19:43:52.748Z,56.11
2023-05-10T19:46:55.486Z,54.46
2023-05-10T19:49:58.190Z,55.04
2023-05-10T19:53:01.208Z,54.76
2023-05-10T19:56:04.992Z,55.17
2023-05-10T19:59:07.854Z,55.93
2023-05-10T20:02:10.495Z,55.58
2023-05-10T20:05:12.727Z,55.33
2023-05-10T20:08:14.880Z,54.90
2023-05-10T20:11:17.040Z,55.00
2023-05-10T20:14:19.202Z,55.40
2023-05-10T20:17:21.432Z,55.20
2023-05-10T20:20:23.781Z,55.54
2023-05-10T20:23:26.573Z,55.10
2023-05-10T20:26:28.941Z,55.67
2023-05-10T20:29:32.565Z,55.82
2023-05-10T20:32:35.297Z,56.64
2023-05-10T20:35:37.654Z,55.79
2023-05-10T20:38:39.834Z,55.59
2023-05-10T20:41:42.524Z,55.40
2023-05-10T20:44:44.719Z,55.06
2023-05-10T20:47:46.940Z,56.10
2023-05-10T20:50:49.117Z,56.73
2023-05-10T20:53:51.853Z,56.54
2023-05-10T20:56:54.241Z,57.54
2023-05-10T20:59:57.553Z,57.85
2023-05-10T21:02:59.780Z,57.28
2023-05-10T21:06:02.032Z,56.59
2023-05-10T21:09:04.321Z,57.45
2023-05-10T21:12:06.708Z,57.59
2023-05-10T21:15:09.385Z,58.03
2023-05-10T21:18:11.643Z,58.18
2023-05-10T21:21:13.850Z,58.35
2023-05-10T21:24:16.762Z,58.25
2023-05-10T21:27:19.398Z,59.20
2023-05-10T21:30:21.648Z,59.35
2023-05-10T21:33:23.963Z,58.91
2023-05-10T21:36:26.942Z,58.70
2023-05-10T21:39:29.133Z,59.44
2023-05-10T21:42:32.041Z,58.71
2023-05-10T21:45:34.296Z,58.83
2023-05-10T21:48:36.512Z,58.21
2023-05-10T21:51:38.638Z,57.79
2023-05-10T21:54:41.857Z,58.61
2023-05-10T21:57:44.841Z,57.35
2023-05-10T22:00:47.003Z,58.35
2023-05-10T22:03:49.282Z,57.78
2023-05-10T22:06:51.497Z,57.17
2023-05-10T22:09:53.674Z,57.59
2023-05-10T22:12:55.892Z,57.80
2023-05-10T22:15:58.106Z,57.70
2023-05-10T22:19:00.347Z,58.33
2023-05-10T22:22:02.705Z,57.60
2023-05-10T22:25:07.357Z,57.98
2023-05-10T22:28:10.057Z,57.96
2023-05-10T22:31:12.664Z,57.74
2023-05-10T22:34:15.165Z,57.72
2023-05-10T22:37:18.061Z,57.72
2023-05-10T22:40:20.251Z,58.14
2023-05-10T22:43:22.411Z,57.81
2023-05-10T22:46:24.630Z,57.70
2023-05-10T22:49:26.833Z,57.31
2023-05-10T22:52:29.430Z,56.87
2023-05-10T22:55:31.621Z,56.59
2023-05-10T22:58:33.817Z,56.01
2023-05-10T23:01:36.072Z,55.96
2023-05-10T23:04:38.295Z,56.06
2023-05-10T23:07:40.595Z,56.42
2023-05-10T23:10:42.876Z,56.56
2023-05-10T23:13:45.100Z,56.72
2023-05-10T23:16:47.419Z,57.62
2023-05-10T23:19:49.682Z,56.83
2023-05-10T23:22:51.867Z,57.32
2023-05-10T23:25:54.021Z,56.89
2023-05-10T23:28:56.220Z,57.68
2023-05-10T23:31:58.417Z,56.30
2023-05-10T23:35:00.861Z,56.66
2023-05-10T23:38:03.285Z,56.90
2023-05-10T23:41:05.601Z,56.65
2023-05-10T23:44:07.766Z,56.77
2023-05-10T23:47:09.951Z,56.71
2023-05-10T23:50:12.155Z,57.12
2023-05-10T23:53:14.433Z,57.73
2023-05-10T23:56:16.644Z,57.44
2023-05-10T23:59:18.828Z,57.13
